sensor_id;sensor_type;location;lat;lon;timestamp;temperature;humidity
14475;DHT22;7323;50.848;4.334;2023-12-28T00:00:42;11.10;55.10
14475;DHT22;7323;50.848;4.334;2023-12-28T00:03:08;11.10;54.90
14475;DHT22;7323;50.848;4.334;2023-12-28T00:05:34;11.10;55.60
14475;DHT22;7323;50.848;4.334;2023-12-28T00:08:00;11.20;56.90
14475;DHT22;7323;50.848;4.334;2023-12-28T00:10:26;11.10;57.80
14475;DHT22;7323;50.848;4.334;2023-12-28T00:12:53;11.10;58.90
14475;DHT22;7323;50.848;4.334;2023-12-28T00:15:19;11.10;63.70
14475;DHT22;7323;50.848;4.334;2023-12-28T00:17:45;11.10;62.60
14475;DHT22;7323;50.848;4.334;2023-12-28T00:20:11;11.20;62.40
14475;DHT22;7323;50.848;4.334;2023-12-28T00:22:37;11.20;58.10
14475;DHT22;7323;50.848;4.334;2023-12-28T00:25:04;11.20;65.30
14475;DHT22;7323;50.848;4.334;2023-12-28T00:27:30;11.20;66.90
14475;DHT22;7323;50.848;4.334;2023-12-28T00:29:55;11.20;69.00
14475;DHT22;7323;50.848;4.334;2023-12-28T00:32:21;11.20;65.30
14475;DHT22;7323;50.848;4.334;2023-12-28T00:34:47;11.20;66.50
14475;DHT22;7323;50.848;4.334;2023-12-28T00:37:12;11.30;67.20
14475;DHT22;7323;50.848;4.334;2023-12-28T00:39:38;11.40;62.00
14475;DHT22;7323;50.848;4.334;2023-12-28T00:42:05;11.40;58.20
14475;DHT22;7323;50.848;4.334;2023-12-28T00:44:30;11.40;61.80
14475;DHT22;7323;50.848;4.334;2023-12-28T00:46:56;11.30;64.30
14475;DHT22;7323;50.848;4.334;2023-12-28T00:49:22;11.30;69.70
14475;DHT22;7323;50.848;4.334;2023-12-28T00:51:47;11.30;69.30
14475;DHT22;7323;50.848;4.334;2023-12-28T00:54:13;11.30;72.90
14475;DHT22;7323;50.848;4.334;2023-12-28T00:56:38;11.30;72.30
14475;DHT22;7323;50.848;4.334;2023-12-28T00:59:04;11.30;74.60
14475;DHT22;7323;50.848;4.334;2023-12-28T01:01:30;11.30;71.50
14475;DHT22;7323;50.848;4.334;2023-12-28T01:03:58;11.30;71.60
14475;DHT22;7323;50.848;4.334;2023-12-28T01:06:24;11.30;72.10
14475;DHT22;7323;50.848;4.334;2023-12-28T01:08:57;11.30;74.80
14475;DHT22;7323;50.848;4.334;2023-12-28T01:11:22;11.30;72.70
14475;DHT22;7323;50.848;4.334;2023-12-28T01:13:48;11.30;76.70
14475;DHT22;7323;50.848;4.334;2023-12-28T01:16:14;11.30;75.90
14475;DHT22;7323;50.848;4.334;2023-12-28T01:18:40;11.20;76.80
14475;DHT22;7323;50.848;4.334;2023-12-28T01:21:06;11.20;80.10
14475;DHT22;7323;50.848;4.334;2023-12-28T01:23:32;11.20;80.10
14475;DHT22;7323;50.848;4.334;2023-12-28T01:25:59;11.20;82.80
14475;DHT22;7323;50.848;4.334;2023-12-28T01:28:24;11.20;83.00
14475;DHT22;7323;50.848;4.334;2023-12-28T01:30:50;11.10;84.40
14475;DHT22;7323;50.848;4.334;2023-12-28T01:33:16;11.10;86.90
14475;DHT22;7323;50.848;4.334;2023-12-28T01:35:42;11.10;87.40
14475;DHT22;7323;50.848;4.334;2023-12-28T01:38:08;11.10;86.30
14475;DHT22;7323;50.848;4.334;2023-12-28T01:40:33;11.20;83.70
14475;DHT22;7323;50.848;4.334;2023-12-28T01:42:59;11.20;84.10
14475;DHT22;7323;50.848;4.334;2023-12-28T01:45:25;11.10;83.70
14475;DHT22;7323;50.848;4.334;2023-12-28T01:47:53;11.20;84.00
14475;DHT22;7323;50.848;4.334;2023-12-28T01:50:20;11.20;80.90
14475;DHT22;7323;50.848;4.334;2023-12-28T01:52:46;11.20;77.90
14475;DHT22;7323;50.848;4.334;2023-12-28T01:55:13;11.20;79.60
14475;DHT22;7323;50.848;4.334;2023-12-28T01:57:40;11.20;77.10
14475;DHT22;7323;50.848;4.334;2023-12-28T02:00:06;11.20;81.40
14475;DHT22;7323;50.848;4.334;2023-12-28T02:02:33;11.20;79.80
14475;DHT22;7323;50.848;4.334;2023-12-28T02:04:59;11.20;79.80
14475;DHT22;7323;50.848;4.334;2023-12-28T02:07:25;11.20;78.00
14475;DHT22;7323;50.848;4.334;2023-12-28T02:09:51;11.20;79.00
14475;DHT22;7323;50.848;4.334;2023-12-28T02:12:17;11.20;75.90
14475;DHT22;7323;50.848;4.334;2023-12-28T02:14:43;11.20;78.10
14475;DHT22;7323;50.848;4.334;2023-12-28T02:19:53;11.30;70.20
14475;DHT22;7323;50.848;4.334;2023-12-28T02:22:20;11.20;72.30
14475;DHT22;7323;50.848;4.334;2023-12-28T02:27:42;11.30;70.60
14475;DHT22;7323;50.848;4.334;2023-12-28T02:30:09;11.40;62.20
14475;DHT22;7323;50.848;4.334;2023-12-28T02:32:37;11.40;61.50
14475;DHT22;7323;50.848;4.334;2023-12-28T02:35:20;11.30;67.70
14475;DHT22;7323;50.848;4.334;2023-12-28T02:37:59;11.30;69.60
14475;DHT22;7323;50.848;4.334;2023-12-28T02:40:27;11.40;68.90
14475;DHT22;7323;50.848;4.334;2023-12-28T02:42:53;11.40;69.50
14475;DHT22;7323;50.848;4.334;2023-12-28T02:45:20;11.50;65.60
14475;DHT22;7323;50.848;4.334;2023-12-28T02:47:46;11.50;62.60
14475;DHT22;7323;50.848;4.334;2023-12-28T02:50:11;11.50;64.60
14475;DHT22;7323;50.848;4.334;2023-12-28T02:52:37;11.50;69.40
14475;DHT22;7323;50.848;4.334;2023-12-28T02:55:03;11.50;67.30
14475;DHT22;7323;50.848;4.334;2023-12-28T02:57:29;11.40;71.00
14475;DHT22;7323;50.848;4.334;2023-12-28T02:59:54;11.40;72.40
14475;DHT22;7323;50.848;4.334;2023-12-28T03:02:22;11.50;70.90
14475;DHT22;7323;50.848;4.334;2023-12-28T03:04:48;11.50;67.40
14475;DHT22;7323;50.848;4.334;2023-12-28T03:07:14;11.40;69.00
14475;DHT22;7323;50.848;4.334;2023-12-28T03:09:39;11.40;67.60
14475;DHT22;7323;50.848;4.334;2023-12-28T03:12:05;11.50;65.20
14475;DHT22;7323;50.848;4.334;2023-12-28T03:14:32;11.50;60.70
14475;DHT22;7323;50.848;4.334;2023-12-28T03:16:57;11.40;62.60
14475;DHT22;7323;50.848;4.334;2023-12-28T03:19:23;11.40;65.70
14475;DHT22;7323;50.848;4.334;2023-12-28T03:21:49;11.40;60.30
14475;DHT22;7323;50.848;4.334;2023-12-28T03:24:14;11.40;59.70
14475;DHT22;7323;50.848;4.334;2023-12-28T03:26:40;11.50;58.40
14475;DHT22;7323;50.848;4.334;2023-12-28T03:29:07;11.40;58.00
14475;DHT22;7323;50.848;4.334;2023-12-28T03:31:33;11.40;58.10
14475;DHT22;7323;50.848;4.334;2023-12-28T03:33:59;11.40;59.40
14475;DHT22;7323;50.848;4.334;2023-12-28T03:36:25;11.50;58.30
14475;DHT22;7323;50.848;4.334;2023-12-28T03:38:50;11.50;58.90
14475;DHT22;7323;50.848;4.334;2023-12-28T03:41:17;11.50;56.70
14475;DHT22;7323;50.848;4.334;2023-12-28T03:43:44;11.60;54.30
14475;DHT22;7323;50.848;4.334;2023-12-28T03:46:10;11.50;56.40
14475;DHT22;7323;50.848;4.334;2023-12-28T03:48:36;11.40;58.50
14475;DHT22;7323;50.848;4.334;2023-12-28T03:51:03;11.40;59.20
14475;DHT22;7323;50.848;4.334;2023-12-28T03:53:28;11.30;60.90
14475;DHT22;7323;50.848;4.334;2023-12-28T03:55:54;11.40;59.70
14475;DHT22;7323;50.848;4.334;2023-12-28T03:58:20;11.40;58.20
14475;DHT22;7323;50.848;4.334;2023-12-28T04:00:45;11.40;57.00
14475;DHT22;7323;50.848;4.334;2023-12-28T04:03:11;11.50;55.60
14475;DHT22;7323;50.848;4.334;2023-12-28T04:05:36;11.50;50.10
14475;DHT22;7323;50.848;4.334;2023-12-28T04:08:03;11.50;48.20
14475;DHT22;7323;50.848;4.334;2023-12-28T04:10:31;11.60;43.70
14475;DHT22;7323;50.848;4.334;2023-12-28T04:12:57;11.50;43.40
14475;DHT22;7323;50.848;4.334;2023-12-28T04:15:25;11.50;47.50
14475;DHT22;7323;50.848;4.334;2023-12-28T04:17:50;11.40;49.40
14475;DHT22;7323;50.848;4.334;2023-12-28T04:20:16;11.40;52.50
14475;DHT22;7323;50.848;4.334;2023-12-28T04:22:42;11.40;52.20
14475;DHT22;7323;50.848;4.334;2023-12-28T04:25:11;11.50;49.20
14475;DHT22;7323;50.848;4.334;2023-12-28T04:27:41;11.50;47.30
14475;DHT22;7323;50.848;4.334;2023-12-28T04:30:11;11.50;46.00
14475;DHT22;7323;50.848;4.334;2023-12-28T04:32:37;11.50;43.80
14475;DHT22;7323;50.848;4.334;2023-12-28T04:35:03;11.50;41.90
14475;DHT22;7323;50.848;4.334;2023-12-28T04:37:29;11.50;38.70
14475;DHT22;7323;50.848;4.334;2023-12-28T04:39:56;11.60;39.20
14475;DHT22;7323;50.848;4.334;2023-12-28T04:42:22;11.60;35.70
14475;DHT22;7323;50.848;4.334;2023-12-28T04:44:48;11.60;37.00
14475;DHT22;7323;50.848;4.334;2023-12-28T04:47:14;11.60;37.10
14475;DHT22;7323;50.848;4.334;2023-12-28T04:49:39;11.50;39.80
14475;DHT22;7323;50.848;4.334;2023-12-28T04:52:05;11.40;43.20
14475;DHT22;7323;50.848;4.334;2023-12-28T04:54:31;11.40;47.90
14475;DHT22;7323;50.848;4.334;2023-12-28T04:56:58;11.30;49.30
14475;DHT22;7323;50.848;4.334;2023-12-28T04:59:24;11.40;47.00
14475;DHT22;7323;50.848;4.334;2023-12-28T05:01:49;11.40;47.60
14475;DHT22;7323;50.848;4.334;2023-12-28T05:04:15;11.40;48.80
14475;DHT22;7323;50.848;4.334;2023-12-28T05:06:41;11.40;45.60
14475;DHT22;7323;50.848;4.334;2023-12-28T05:09:06;11.30;46.80
14475;DHT22;7323;50.848;4.334;2023-12-28T05:11:32;11.30;47.20
14475;DHT22;7323;50.848;4.334;2023-12-28T05:13:58;11.20;49.40
14475;DHT22;7323;50.848;4.334;2023-12-28T05:16:23;11.20;48.80
14475;DHT22;7323;50.848;4.334;2023-12-28T05:18:49;11.20;49.80
14475;DHT22;7323;50.848;4.334;2023-12-28T05:21:15;11.20;52.80
14475;DHT22;7323;50.848;4.334;2023-12-28T05:23:41;11.20;50.50
14475;DHT22;7323;50.848;4.334;2023-12-28T05:26:07;11.20;49.40
14475;DHT22;7323;50.848;4.334;2023-12-28T05:28:32;11.30;46.80
14475;DHT22;7323;50.848;4.334;2023-12-28T05:30:58;11.40;45.70
14475;DHT22;7323;50.848;4.334;2023-12-28T05:33:25;11.30;49.20
14475;DHT22;7323;50.848;4.334;2023-12-28T05:35:51;11.30;45.60
14475;DHT22;7323;50.848;4.334;2023-12-28T05:38:17;11.30;48.80
14475;DHT22;7323;50.848;4.334;2023-12-28T05:40:43;11.30;49.30
14475;DHT22;7323;50.848;4.334;2023-12-28T05:43:10;11.20;51.20
14475;DHT22;7323;50.848;4.334;2023-12-28T05:45:36;11.20;53.70
14475;DHT22;7323;50.848;4.334;2023-12-28T05:48:02;11.20;53.80
14475;DHT22;7323;50.848;4.334;2023-12-28T05:50:28;11.30;53.10
14475;DHT22;7323;50.848;4.334;2023-12-28T05:52:54;11.30;50.70
14475;DHT22;7323;50.848;4.334;2023-12-28T05:55:20;11.30;51.20
14475;DHT22;7323;50.848;4.334;2023-12-28T05:57:46;11.30;49.60
14475;DHT22;7323;50.848;4.334;2023-12-28T06:00:13;11.30;49.00
14475;DHT22;7323;50.848;4.334;2023-12-28T06:02:40;11.30;43.00
14475;DHT22;7323;50.848;4.334;2023-12-28T06:05:07;11.40;37.90
14475;DHT22;7323;50.848;4.334;2023-12-28T06:07:32;11.40;40.20
14475;DHT22;7323;50.848;4.334;2023-12-28T06:09:58;11.40;38.20
14475;DHT22;7323;50.848;4.334;2023-12-28T06:12:24;11.40;37.10
14475;DHT22;7323;50.848;4.334;2023-12-28T06:14:50;11.40;37.50
14475;DHT22;7323;50.848;4.334;2023-12-28T06:17:16;11.30;37.70
14475;DHT22;7323;50.848;4.334;2023-12-28T06:19:44;11.30;40.50
14475;DHT22;7323;50.848;4.334;2023-12-28T06:22:09;11.20;41.30
14475;DHT22;7323;50.848;4.334;2023-12-28T06:24:38;11.20;39.00
14475;DHT22;7323;50.848;4.334;2023-12-28T06:27:07;11.20;40.00
14475;DHT22;7323;50.848;4.334;2023-12-28T06:29:33;11.20;43.10
14475;DHT22;7323;50.848;4.334;2023-12-28T06:31:58;11.10;47.00
14475;DHT22;7323;50.848;4.334;2023-12-28T06:34:24;11.10;47.90
14475;DHT22;7323;50.848;4.334;2023-12-28T06:36:50;11.10;46.40
14475;DHT22;7323;50.848;4.334;2023-12-28T06:39:16;11.10;47.00
14475;DHT22;7323;50.848;4.334;2023-12-28T06:41:42;11.10;46.40
14475;DHT22;7323;50.848;4.334;2023-12-28T06:44:07;11.10;46.00
14475;DHT22;7323;50.848;4.334;2023-12-28T06:46:34;11.00;46.60
14475;DHT22;7323;50.848;4.334;2023-12-28T06:48:59;11.00;46.50
14475;DHT22;7323;50.848;4.334;2023-12-28T06:51:25;11.00;50.20
14475;DHT22;7323;50.848;4.334;2023-12-28T06:53:52;11.00;48.80
14475;DHT22;7323;50.848;4.334;2023-12-28T06:56:17;10.90;51.70
14475;DHT22;7323;50.848;4.334;2023-12-28T06:58:44;11.00;52.30
14475;DHT22;7323;50.848;4.334;2023-12-28T07:01:09;11.00;50.90
14475;DHT22;7323;50.848;4.334;2023-12-28T07:03:36;11.00;52.30
14475;DHT22;7323;50.848;4.334;2023-12-28T07:06:02;11.00;49.20
14475;DHT22;7323;50.848;4.334;2023-12-28T07:08:30;10.90;54.30
14475;DHT22;7323;50.848;4.334;2023-12-28T07:10:56;10.90;55.30
14475;DHT22;7323;50.848;4.334;2023-12-28T07:13:22;10.90;56.30
14475;DHT22;7323;50.848;4.334;2023-12-28T07:15:48;10.90;52.50
14475;DHT22;7323;50.848;4.334;2023-12-28T07:18:14;10.90;50.00
14475;DHT22;7323;50.848;4.334;2023-12-28T07:20:39;10.90;46.80
14475;DHT22;7323;50.848;4.334;2023-12-28T07:23:05;10.90;48.40
14475;DHT22;7323;50.848;4.334;2023-12-28T07:25:31;10.80;52.30
14475;DHT22;7323;50.848;4.334;2023-12-28T07:27:56;10.80;51.50
14475;DHT22;7323;50.848;4.334;2023-12-28T07:30:22;10.80;51.60
14475;DHT22;7323;50.848;4.334;2023-12-28T07:32:48;10.90;46.60
14475;DHT22;7323;50.848;4.334;2023-12-28T07:35:13;10.90;45.30
14475;DHT22;7323;50.848;4.334;2023-12-28T07:37:39;10.80;47.30
14475;DHT22;7323;50.848;4.334;2023-12-28T07:40:06;10.80;46.40
14475;DHT22;7323;50.848;4.334;2023-12-28T07:42:31;10.90;44.50
14475;DHT22;7323;50.848;4.334;2023-12-28T07:44:57;10.90;42.50
14475;DHT22;7323;50.848;4.334;2023-12-28T07:47:23;10.90;41.10
14475;DHT22;7323;50.848;4.334;2023-12-28T07:49:48;10.90;38.80
14475;DHT22;7323;50.848;4.334;2023-12-28T07:52:14;10.90;37.70
14475;DHT22;7323;50.848;4.334;2023-12-28T07:54:40;10.90;34.50
14475;DHT22;7323;50.848;4.334;2023-12-28T07:57:05;10.90;31.70
14475;DHT22;7323;50.848;4.334;2023-12-28T07:59:31;10.90;32.90
14475;DHT22;7323;50.848;4.334;2023-12-28T08:01:57;10.80;32.80
14475;DHT22;7323;50.848;4.334;2023-12-28T08:04:22;10.90;29.90
14475;DHT22;7323;50.848;4.334;2023-12-28T08:06:48;11.00;29.00
14475;DHT22;7323;50.848;4.334;2023-12-28T08:09:14;10.90;30.10
14475;DHT22;7323;50.848;4.334;2023-12-28T08:11:40;10.90;30.60
14475;DHT22;7323;50.848;4.334;2023-12-28T08:14:05;10.90;32.70
14475;DHT22;7323;50.848;4.334;2023-12-28T08:16:31;10.90;31.60
14475;DHT22;7323;50.848;4.334;2023-12-28T08:18:57;10.90;31.00
14475;DHT22;7323;50.848;4.334;2023-12-28T08:21:22;10.90;32.50
14475;DHT22;7323;50.848;4.334;2023-12-28T08:23:48;11.00;32.60
14475;DHT22;7323;50.848;4.334;2023-12-28T08:26:14;11.10;29.10
14475;DHT22;7323;50.848;4.334;2023-12-28T08:28:40;11.10;28.30
14475;DHT22;7323;50.848;4.334;2023-12-28T08:31:06;11.00;32.50
14475;DHT22;7323;50.848;4.334;2023-12-28T08:33:33;11.10;32.70
14475;DHT22;7323;50.848;4.334;2023-12-28T08:36:03;11.20;31.60
14475;DHT22;7323;50.848;4.334;2023-12-28T08:38:29;11.20;30.10
14475;DHT22;7323;50.848;4.334;2023-12-28T08:40:55;11.20;30.20
14475;DHT22;7323;50.848;4.334;2023-12-28T08:43:20;11.20;27.60
14475;DHT22;7323;50.848;4.334;2023-12-28T08:45:46;11.20;28.70
14475;DHT22;7323;50.848;4.334;2023-12-28T08:48:12;11.20;29.40
14475;DHT22;7323;50.848;4.334;2023-12-28T08:50:37;11.30;29.80
14475;DHT22;7323;50.848;4.334;2023-12-28T08:53:03;11.30;28.20
14475;DHT22;7323;50.848;4.334;2023-12-28T08:55:29;11.30;26.30
14475;DHT22;7323;50.848;4.334;2023-12-28T08:57:54;11.30;27.30
14475;DHT22;7323;50.848;4.334;2023-12-28T09:00:20;11.30;26.00
14475;DHT22;7323;50.848;4.334;2023-12-28T09:02:46;11.30;26.80
14475;DHT22;7323;50.848;4.334;2023-12-28T09:05:12;11.30;26.30
14475;DHT22;7323;50.848;4.334;2023-12-28T09:07:38;11.40;24.10
14475;DHT22;7323;50.848;4.334;2023-12-28T09:10:12;11.40;24.30
14475;DHT22;7323;50.848;4.334;2023-12-28T09:12:40;11.40;21.40
14475;DHT22;7323;50.848;4.334;2023-12-28T09:15:07;11.40;19.50
14475;DHT22;7323;50.848;4.334;2023-12-28T09:17:33;11.40;19.80
14475;DHT22;7323;50.848;4.334;2023-12-28T09:19:59;11.40;18.90
14475;DHT22;7323;50.848;4.334;2023-12-28T09:22:26;11.50;19.20
14475;DHT22;7323;50.848;4.334;2023-12-28T09:24:52;11.50;17.50
14475;DHT22;7323;50.848;4.334;2023-12-28T09:27:18;11.40;19.40
14475;DHT22;7323;50.848;4.334;2023-12-28T09:29:43;11.40;22.40
14475;DHT22;7323;50.848;4.334;2023-12-28T09:32:09;11.40;21.30
14475;DHT22;7323;50.848;4.334;2023-12-28T09:34:35;11.50;22.70
14475;DHT22;7323;50.848;4.334;2023-12-28T09:37:00;11.40;21.10
14475;DHT22;7323;50.848;4.334;2023-12-28T09:39:26;11.60;18.40
14475;DHT22;7323;50.848;4.334;2023-12-28T09:41:59;11.60;14.00
14475;DHT22;7323;50.848;4.334;2023-12-28T09:44:29;11.60;15.00
14475;DHT22;7323;50.848;4.334;2023-12-28T09:46:56;11.50;17.60
14475;DHT22;7323;50.848;4.334;2023-12-28T09:49:23;11.60;16.40
14475;DHT22;7323;50.848;4.334;2023-12-28T09:51:48;11.50;15.90
14475;DHT22;7323;50.848;4.334;2023-12-28T09:54:15;11.60;16.60
14475;DHT22;7323;50.848;4.334;2023-12-28T09:56:40;11.60;12.20
14475;DHT22;7323;50.848;4.334;2023-12-28T09:59:07;11.70;13.30
14475;DHT22;7323;50.848;4.334;2023-12-28T10:01:34;11.70;11.20
14475;DHT22;7323;50.848;4.334;2023-12-28T10:04:00;11.70;9.90
14475;DHT22;7323;50.848;4.334;2023-12-28T10:06:28;11.70;12.80
14475;DHT22;7323;50.848;4.334;2023-12-28T10:08:54;11.80;10.10
14475;DHT22;7323;50.848;4.334;2023-12-28T10:11:21;11.80;9.20
14475;DHT22;7323;50.848;4.334;2023-12-28T10:13:49;11.70;10.20
14475;DHT22;7323;50.848;4.334;2023-12-28T10:16:16;11.70;10.90
14475;DHT22;7323;50.848;4.334;2023-12-28T10:18:42;11.70;12.50
14475;DHT22;7323;50.848;4.334;2023-12-28T10:21:09;11.70;11.30
14475;DHT22;7323;50.848;4.334;2023-12-28T10:23:34;11.70;5.40
14475;DHT22;7323;50.848;4.334;2023-12-28T10:26:00;11.80;5.10
14475;DHT22;7323;50.848;4.334;2023-12-28T10:28:26;11.80;6.30
14475;DHT22;7323;50.848;4.334;2023-12-28T10:30:55;11.90;2.60
14475;DHT22;7323;50.848;4.334;2023-12-28T10:33:24;11.90;2.10
14475;DHT22;7323;50.848;4.334;2023-12-28T10:35:52;11.90;2.20
14475;DHT22;7323;50.848;4.334;2023-12-28T10:38:21;11.90;5.30
14475;DHT22;7323;50.848;4.334;2023-12-28T10:40:47;11.90;3.50
14475;DHT22;7323;50.848;4.334;2023-12-28T10:43:17;11.90;4.90
14475;DHT22;7323;50.848;4.334;2023-12-28T10:45:50;11.90;6.50
14475;DHT22;7323;50.848;4.334;2023-12-28T10:48:26;12.00;5.50
14475;DHT22;7323;50.848;4.334;2023-12-28T10:50:54;12.00;2.70
14475;DHT22;7323;50.848;4.334;2023-12-28T10:56:27;12.00;3.90
14475;DHT22;7323;50.848;4.334;2023-12-28T10:59:03;12.00;2.20
14475;DHT22;7323;50.848;4.334;2023-12-28T11:01:32;12.10;3.40
14475;DHT22;7323;50.848;4.334;2023-12-28T11:04:06;12.10;3.00
14475;DHT22;7323;50.848;4.334;2023-12-28T11:06:35;12.20;1.00
14475;DHT22;7323;50.848;4.334;2023-12-28T11:09:02;12.20;1.00
14475;DHT22;7323;50.848;4.334;2023-12-28T11:11:29;12.20;1.00
14475;DHT22;7323;50.848;4.334;2023-12-28T11:13:55;12.20;1.00
14475;DHT22;7323;50.848;4.334;2023-12-28T11:16:22;12.20;1.00
14475;DHT22;7323;50.848;4.334;2023-12-28T11:18:49;12.20;1.00
14475;DHT22;7323;50.848;4.334;2023-12-28T11:21:16;12.20;1.50
14475;DHT22;7323;50.848;4.334;2023-12-28T11:23:43;12.20;1.90
14475;DHT22;7323;50.848;4.334;2023-12-28T11:26:20;12.20;1.00
14475;DHT22;7323;50.848;4.334;2023-12-28T11:28:46;12.20;1.00
14475;DHT22;7323;50.848;4.334;2023-12-28T11:31:15;12.20;1.00
14475;DHT22;7323;50.848;4.334;2023-12-28T11:33:45;12.20;1.00
14475;DHT22;7323;50.848;4.334;2023-12-28T11:36:22;12.20;1.10
14475;DHT22;7323;50.848;4.334;2023-12-28T11:38:50;12.20;1.00
14475;DHT22;7323;50.848;4.334;2023-12-28T11:41:17;12.30;1.20
14475;DHT22;7323;50.848;4.334;2023-12-28T11:43:52;12.30;1.00
14475;DHT22;7323;50.848;4.334;2023-12-28T11:46:20;12.30;1.00
14475;DHT22;7323;50.848;4.334;2023-12-28T11:48:45;12.30;1.00
14475;DHT22;7323;50.848;4.334;2023-12-28T11:51:11;12.40;1.00
14475;DHT22;7323;50.848;4.334;2023-12-28T11:53:38;12.40;1.00
14475;DHT22;7323;50.848;4.334;2023-12-28T11:56:04;12.40;1.00
14475;DHT22;7323;50.848;4.334;2023-12-28T11:58:35;12.40;1.00
14475;DHT22;7323;50.848;4.334;2023-12-28T12:01:02;12.40;1.00
14475;DHT22;7323;50.848;4.334;2023-12-28T12:03:28;12.40;1.00
14475;DHT22;7323;50.848;4.334;2023-12-28T12:05:57;12.40;1.00
14475;DHT22;7323;50.848;4.334;2023-12-28T12:08:23;12.40;1.00
14475;DHT22;7323;50.848;4.334;2023-12-28T12:11:00;12.40;1.00
14475;DHT22;7323;50.848;4.334;2023-12-28T12:13:27;12.40;1.00
14475;DHT22;7323;50.848;4.334;2023-12-28T12:15:53;12.50;1.00
14475;DHT22;7323;50.848;4.334;2023-12-28T12:18:19;12.50;1.00
14475;DHT22;7323;50.848;4.334;2023-12-28T12:20:45;12.50;1.00
14475;DHT22;7323;50.848;4.334;2023-12-28T12:23:11;12.60;1.00
14475;DHT22;7323;50.848;4.334;2023-12-28T12:25:38;12.50;1.00
14475;DHT22;7323;50.848;4.334;2023-12-28T12:28:06;12.60;1.00
14475;DHT22;7323;50.848;4.334;2023-12-28T12:30:32;12.50;1.00
14475;DHT22;7323;50.848;4.334;2023-12-28T12:32:57;12.50;1.00
14475;DHT22;7323;50.848;4.334;2023-12-28T12:35:24;12.50;1.00
14475;DHT22;7323;50.848;4.334;2023-12-28T12:37:51;12.40;1.00
14475;DHT22;7323;50.848;4.334;2023-12-28T12:40:17;12.40;1.00
14475;DHT22;7323;50.848;4.334;2023-12-28T12:42:52;12.50;1.00
14475;DHT22;7323;50.848;4.334;2023-12-28T12:45:20;12.40;1.00
14475;DHT22;7323;50.848;4.334;2023-12-28T12:47:47;12.40;1.00
14475;DHT22;7323;50.848;4.334;2023-12-28T12:50:13;12.30;1.00
14475;DHT22;7323;50.848;4.334;2023-12-28T12:52:41;12.40;1.00
14475;DHT22;7323;50.848;4.334;2023-12-28T12:55:13;12.30;1.00
14475;DHT22;7323;50.848;4.334;2023-12-28T12:57:40;12.30;1.00
14475;DHT22;7323;50.848;4.334;2023-12-28T13:00:06;12.30;1.00
14475;DHT22;7323;50.848;4.334;2023-12-28T13:02:35;12.30;1.00
14475;DHT22;7323;50.848;4.334;2023-12-28T13:05:04;12.30;1.00
14475;DHT22;7323;50.848;4.334;2023-12-28T13:07:31;12.30;1.00
14475;DHT22;7323;50.848;4.334;2023-12-28T13:09:57;12.30;1.00
14475;DHT22;7323;50.848;4.334;2023-12-28T13:12:23;12.40;1.00
14475;DHT22;7323;50.848;4.334;2023-12-28T13:14:50;12.30;1.00
14475;DHT22;7323;50.848;4.334;2023-12-28T13:17:15;12.40;1.00
14475;DHT22;7323;50.848;4.334;2023-12-28T13:19:42;12.40;1.00
14475;DHT22;7323;50.848;4.334;2023-12-28T13:22:08;12.30;1.00
14475;DHT22;7323;50.848;4.334;2023-12-28T13:24:33;12.30;1.00
14475;DHT22;7323;50.848;4.334;2023-12-28T13:26:59;12.40;1.00
14475;DHT22;7323;50.848;4.334;2023-12-28T13:29:26;12.30;1.00
14475;DHT22;7323;50.848;4.334;2023-12-28T13:31:52;12.30;1.00
14475;DHT22;7323;50.848;4.334;2023-12-28T13:34:18;12.30;1.00
14475;DHT22;7323;50.848;4.334;2023-12-28T13:36:46;12.30;1.00
14475;DHT22;7323;50.848;4.334;2023-12-28T13:39:12;12.30;1.00
14475;DHT22;7323;50.848;4.334;2023-12-28T13:41:40;12.30;1.00
14475;DHT22;7323;50.848;4.334;2023-12-28T13:44:06;12.30;1.00
14475;DHT22;7323;50.848;4.334;2023-12-28T13:46:35;12.40;1.00
14475;DHT22;7323;50.848;4.334;2023-12-28T13:49:01;12.30;1.00
14475;DHT22;7323;50.848;4.334;2023-12-28T13:51:31;12.30;1.00
14475;DHT22;7323;50.848;4.334;2023-12-28T13:53:57;12.40;1.00
14475;DHT22;7323;50.848;4.334;2023-12-28T13:56:23;12.40;1.00
14475;DHT22;7323;50.848;4.334;2023-12-28T13:58:49;12.40;1.00
14475;DHT22;7323;50.848;4.334;2023-12-28T14:01:14;12.40;1.00
14475;DHT22;7323;50.848;4.334;2023-12-28T14:03:40;12.30;1.00
14475;DHT22;7323;50.848;4.334;2023-12-28T14:06:06;12.30;1.00
14475;DHT22;7323;50.848;4.334;2023-12-28T14:08:31;12.30;1.00
14475;DHT22;7323;50.848;4.334;2023-12-28T14:10:58;12.30;1.00
14475;DHT22;7323;50.848;4.334;2023-12-28T14:13:23;12.30;1.00
14475;DHT22;7323;50.848;4.334;2023-12-28T14:15:49;12.40;1.00
14475;DHT22;7323;50.848;4.334;2023-12-28T14:18:15;12.40;1.00
14475;DHT22;7323;50.848;4.334;2023-12-28T14:20:40;12.40;1.00
14475;DHT22;7323;50.848;4.334;2023-12-28T14:23:06;12.40;1.00
14475;DHT22;7323;50.848;4.334;2023-12-28T14:25:32;12.30;1.00
14475;DHT22;7323;50.848;4.334;2023-12-28T14:27:58;12.30;1.00
14475;DHT22;7323;50.848;4.334;2023-12-28T14:30:24;12.30;1.00
14475;DHT22;7323;50.848;4.334;2023-12-28T14:32:50;12.30;1.00
14475;DHT22;7323;50.848;4.334;2023-12-28T14:35:16;12.30;1.00
14475;DHT22;7323;50.848;4.334;2023-12-28T14:37:46;12.30;1.00
14475;DHT22;7323;50.848;4.334;2023-12-28T14:40:12;12.40;1.00
14475;DHT22;7323;50.848;4.334;2023-12-28T14:42:38;12.30;1.00
14475;DHT22;7323;50.848;4.334;2023-12-28T14:45:04;12.30;1.00
14475;DHT22;7323;50.848;4.334;2023-12-28T14:47:30;12.20;1.00
14475;DHT22;7323;50.848;4.334;2023-12-28T14:49:56;12.10;1.00
14475;DHT22;7323;50.848;4.334;2023-12-28T14:52:25;12.10;1.00
14475;DHT22;7323;50.848;4.334;2023-12-28T14:54:50;12.10;1.00
14475;DHT22;7323;50.848;4.334;2023-12-28T14:57:17;12.20;1.00
14475;DHT22;7323;50.848;4.334;2023-12-28T14:59:43;12.10;1.00
14475;DHT22;7323;50.848;4.334;2023-12-28T15:02:09;12.10;1.00
14475;DHT22;7323;50.848;4.334;2023-12-28T15:04:34;12.10;1.00
14475;DHT22;7323;50.848;4.334;2023-12-28T15:07:00;12.10;1.00
14475;DHT22;7323;50.848;4.334;2023-12-28T15:09:26;12.10;1.00
14475;DHT22;7323;50.848;4.334;2023-12-28T15:11:51;12.10;1.00
14475;DHT22;7323;50.848;4.334;2023-12-28T15:14:17;12.00;1.00
14475;DHT22;7323;50.848;4.334;2023-12-28T15:16:43;12.00;1.00
14475;DHT22;7323;50.848;4.334;2023-12-28T15:19:09;12.00;1.00
14475;DHT22;7323;50.848;4.334;2023-12-28T15:21:36;11.90;1.00
14475;DHT22;7323;50.848;4.334;2023-12-28T15:24:02;11.90;1.00
14475;DHT22;7323;50.848;4.334;2023-12-28T15:26:28;11.90;1.00
14475;DHT22;7323;50.848;4.334;2023-12-28T15:28:53;11.80;1.00
14475;DHT22;7323;50.848;4.334;2023-12-28T15:31:19;11.80;1.00
14475;DHT22;7323;50.848;4.334;2023-12-28T15:33:45;11.80;1.00
14475;DHT22;7323;50.848;4.334;2023-12-28T15:36:10;11.90;1.00
14475;DHT22;7323;50.848;4.334;2023-12-28T15:38:36;11.80;1.00
14475;DHT22;7323;50.848;4.334;2023-12-28T15:41:02;11.80;1.00
14475;DHT22;7323;50.848;4.334;2023-12-28T15:43:27;11.80;1.00
14475;DHT22;7323;50.848;4.334;2023-12-28T15:45:53;11.80;1.00
14475;DHT22;7323;50.848;4.334;2023-12-28T15:48:20;11.80;1.00
14475;DHT22;7323;50.848;4.334;2023-12-28T15:50:46;11.90;1.00
14475;DHT22;7323;50.848;4.334;2023-12-28T15:53:11;11.80;1.00
14475;DHT22;7323;50.848;4.334;2023-12-28T15:55:37;11.80;1.00